createdAt,value
2018-03-28T00:00:36.927Z,99.00
2018-03-28T00:03:05.882Z,98.90
2018-03-28T00:05:33.420Z,98.90
2018-03-28T00:08:00.951Z,99.20
2018-03-28T00:10:28.512Z,99.10
2018-03-28T00:12:56.804Z,99.40
2018-03-28T00:15:24.349Z,99.50
2018-03-28T00:17:51.915Z,99.70
2018-03-28T00:20:20.235Z,99.90
2018-03-28T00:22:49.791Z,99.90
2018-03-28T00:25:18.608Z,99.90
2018-03-28T00:27:46.145Z,99.90
2018-03-28T00:30:24.721Z,99.90
2018-03-28T00:34:50.700Z,99.90
2018-03-28T00:37:18.270Z,99.90
2018-03-28T00:39:45.803Z,99.90
2018-03-28T00:42:25.943Z,99.90
2018-03-28T00:44:53.448Z,99.90
2018-03-28T00:47:21.019Z,99.90
2018-03-28T00:49:48.591Z,99.90
2018-03-28T00:52:16.497Z,99.90
2018-03-28T00:54:44.052Z,99.90
2018-03-28T00:57:11.628Z,99.90
2018-03-28T00:59:39.172Z,99.90
2018-03-28T01:02:06.711Z,99.90
2018-03-28T01:04:34.771Z,99.90
2018-03-28T01:07:02.308Z,99.90
2018-03-28T01:09:29.843Z,99.90
2018-03-28T01:11:57.405Z,99.90
2018-03-28T01:14:25.179Z,99.90
2018-03-28T01:16:52.716Z,99.90
2018-03-28T01:19:21.041Z,99.90
2018-03-28T01:21:48.575Z,99.90
2018-03-28T01:24:16.510Z,99.90
2018-03-28T01:26:44.408Z,99.90
2018-03-28T01:29:11.966Z,99.90
2018-03-28T01:31:39.509Z,99.90
2018-03-28T01:34:07.090Z,99.90
2018-03-28T01:36:34.623Z,99.90
2018-03-28T01:39:02.167Z,99.90
2018-03-28T01:41:29.736Z,99.90
2018-03-28T01:43:57.274Z,99.90
2018-03-28T01:46:24.821Z,99.90
2018-03-28T01:48:52.728Z,99.90
2018-03-28T01:51:20.259Z,99.90
2018-03-28T01:53:47.795Z,99.90
2018-03-28T01:56:16.292Z,99.90
2018-03-28T01:58:43.837Z,99.90
2018-03-28T02:01:11.376Z,99.90
2018-03-28T02:03:38.943Z,99.90
2018-03-28T02:06:06.483Z,99.90
2018-03-28T02:08:34.898Z,99.90
2018-03-28T02:11:02.793Z,99.90
2018-03-28T02:13:30.331Z,99.90
2018-03-28T02:15:58.025Z,99.90
2018-03-28T02:18:25.607Z,99.90
2018-03-28T02:20:53.908Z,99.90
2018-03-28T02:23:21.449Z,99.90
2018-03-28T02:25:49.024Z,99.90
2018-03-28T02:28:16.564Z,99.90
2018-03-28T02:30:44.105Z,99.90
2018-03-28T02:33:11.984Z,99.90
2018-03-28T02:35:39.519Z,99.90
2018-03-28T02:38:07.051Z,99.90
2018-03-28T02:40:34.618Z,99.90
2018-03-28T02:43:02.156Z,99.90
2018-03-28T02:45:29.696Z,99.90
2018-03-28T02:47:57.255Z,99.90
2018-03-28T02:50:25.568Z,99.90
2018-03-28T02:52:53.123Z,99.90
2018-03-28T02:55:21.135Z,99.90
2018-03-28T02:57:48.676Z,99.90
2018-03-28T03:00:16.563Z,99.90
2018-03-28T03:02:44.136Z,99.90
2018-03-28T03:05:11.676Z,99.90
2018-03-28T03:07:39.242Z,99.90
2018-03-28T03:10:06.803Z,99.90
2018-03-28T03:12:34.338Z,99.90
2018-03-28T03:15:01.874Z,99.90
2018-03-28T03:17:30.648Z,99.90
2018-03-28T03:19:58.200Z,99.90
2018-03-28T03:22:26.503Z,99.90
2018-03-28T03:24:54.087Z,99.90
2018-03-28T03:27:21.611Z,99.90
2018-03-28T03:29:49.144Z,99.90
2018-03-28T03:32:17.467Z,99.90
2018-03-28T03:34:44.996Z,99.90
2018-03-28T03:37:12.535Z,99.90
2018-03-28T03:39:40.176Z,99.90
2018-03-28T03:42:07.723Z,99.90
2018-03-28T03:44:35.256Z,99.90
2018-03-28T03:47:02.813Z,99.90
2018-03-28T03:49:30.440Z,99.90
2018-03-28T03:51:58.751Z,99.90
2018-03-28T03:54:26.316Z,99.90
2018-03-28T03:56:53.851Z,99.90
2018-03-28T03:59:21.395Z,99.90
2018-03-28T04:01:49.640Z,99.90
2018-03-28T04:04:17.184Z,99.90
2018-03-28T04:06:44.719Z,99.90
2018-03-28T04:09:12.294Z,99.90
2018-03-28T04:11:39.840Z,99.90
2018-03-28T04:14:07.383Z,99.90
2018-03-28T04:16:35.711Z,99.90
2018-03-28T04:19:03.969Z,99.90
2018-03-28T04:21:31.512Z,99.90
2018-03-28T04:23:59.414Z,99.90
2018-03-28T04:26:26.954Z,99.90
2018-03-28T04:28:54.500Z,99.90
2018-03-28T04:31:22.071Z,99.90
2018-03-28T04:33:49.607Z,99.90
2018-03-28T04:36:17.903Z,99.90
2018-03-28T04:38:45.476Z,99.90
2018-03-28T04:41:15.392Z,99.90
2018-03-28T04:43:42.964Z,99.90
2018-03-28T04:46:11.451Z,99.90
2018-03-28T04:48:38.992Z,99.90
2018-03-28T04:51:06.532Z,99.90
2018-03-28T04:53:34.099Z,99.90
2018-03-28T04:56:01.632Z,99.90
2018-03-28T04:58:29.943Z,99.90
2018-03-28T05:00:57.499Z,99.90
2018-03-28T05:03:25.028Z,99.90
2018-03-28T05:05:52.795Z,99.90
2018-03-28T05:08:20.681Z,99.90
2018-03-28T05:10:48.220Z,99.90
2018-03-28T05:13:16.468Z,99.90
2018-03-28T05:15:44.035Z,99.90
2018-03-28T05:18:11.580Z,99.90
2018-03-28T05:20:39.119Z,99.90
2018-03-28T05:23:06.679Z,99.90
2018-03-28T05:25:34.992Z,99.90
2018-03-28T05:28:02.526Z,99.90
2018-03-28T05:30:30.156Z,99.90
2018-03-28T05:32:57.696Z,99.90
2018-03-28T05:35:25.230Z,99.90
2018-03-28T05:37:52.800Z,99.90
2018-03-28T05:40:20.327Z,99.90
2018-03-28T05:42:47.889Z,99.90
2018-03-28T05:45:16.520Z,99.90
2018-03-28T05:47:44.068Z,99.90
2018-03-28T05:50:11.599Z,99.90
2018-03-28T05:52:39.191Z,99.90
2018-03-28T05:55:06.724Z,99.90
2018-03-28T05:57:34.256Z,99.90
2018-03-28T06:00:01.853Z,99.90
2018-03-28T06:02:29.412Z,99.90
2018-03-28T06:04:56.946Z,99.90
2018-03-28T06:07:24.531Z,99.90
2018-03-28T06:09:52.064Z,99.90
2018-03-28T06:12:19.648Z,99.90
2018-03-28T06:14:47.248Z,99.90
2018-03-28T06:17:16.426Z,99.90
2018-03-28T06:19:43.964Z,99.90
2018-03-28T06:22:11.709Z,99.90
2018-03-28T06:24:39.260Z,99.90
2018-03-28T06:27:06.793Z,99.90
2018-03-28T06:29:34.356Z,99.90
2018-03-28T06:32:01.901Z,99.90
2018-03-28T06:34:30.205Z,99.90
2018-03-28T06:36:58.420Z,99.90
2018-03-28T06:39:25.970Z,99.90
2018-03-28T06:41:53.504Z,99.90
2018-03-28T06:44:21.077Z,99.90
2018-03-28T06:46:48.611Z,99.90
2018-03-28T06:49:16.420Z,99.90
2018-03-28T06:51:43.997Z,99.90
2018-03-28T06:54:12.195Z,99.90
2018-03-28T06:56:40.780Z,99.90
2018-03-28T06:59:09.530Z,99.90
2018-03-28T07:01:37.063Z,99.90
2018-03-28T07:04:04.588Z,99.90
2018-03-28T07:06:32.918Z,99.90
2018-03-28T07:09:01.220Z,99.90
2018-03-28T07:11:28.763Z,99.90
2018-03-28T07:13:56.342Z,99.90
2018-03-28T07:16:23.875Z,99.90
2018-03-28T07:18:51.427Z,99.90
2018-03-28T07:21:19.405Z,99.90
2018-03-28T07:23:47.356Z,99.90
2018-03-28T07:26:16.480Z,99.90
2018-03-28T07:28:44.040Z,99.90
2018-03-28T07:31:11.581Z,99.90
2018-03-28T07:33:39.116Z,99.90
2018-03-28T07:36:07.115Z,99.90
2018-03-28T07:38:35.600Z,99.90
2018-03-28T07:41:03.149Z,99.90
2018-03-28T07:43:31.216Z,99.90
2018-03-28T07:45:58.760Z,99.90
2018-03-28T07:48:26.297Z,99.90
2018-03-28T07:50:53.885Z,99.90
2018-03-28T07:53:21.484Z,99.90
2018-03-28T07:55:49.028Z,99.90
2018-03-28T07:58:16.589Z,99.90
2018-03-28T08:00:44.123Z,99.90
2018-03-28T08:03:11.664Z,99.90
2018-03-28T08:05:40.096Z,99.90
2018-03-28T08:08:07.698Z,99.90
2018-03-28T08:10:35.211Z,99.90
2018-03-28T08:13:02.778Z,99.90
2018-03-28T08:15:32.654Z,99.30
2018-03-28T08:18:00.985Z,97.30
2018-03-28T08:20:28.576Z,97.30
2018-03-28T08:22:56.155Z,95.30
2018-03-28T08:25:23.820Z,95.60
2018-03-28T08:27:51.823Z,95.10
2018-03-28T08:30:19.372Z,93.90
2018-03-28T08:32:48.075Z,93.00
2018-03-28T08:35:17.247Z,92.50
2018-03-28T08:37:44.915Z,92.20
2018-03-28T08:40:12.485Z,91.30
2018-03-28T08:42:40.055Z,85.40
2018-03-28T08:45:09.978Z,87.60
2018-03-28T08:47:37.757Z,89.30
2018-03-28T08:50:06.213Z,85.50
2018-03-28T08:52:33.826Z,90.30
2018-03-28T08:55:01.393Z,90.40
2018-03-28T08:57:28.969Z,90.70
2018-03-28T08:59:56.516Z,91.20
2018-03-28T09:02:24.168Z,91.60
2018-03-28T09:04:51.744Z,91.10
2018-03-28T09:07:19.281Z,91.80
2018-03-28T09:09:46.912Z,92.40
2018-03-28T09:12:27.177Z,91.50
2018-03-28T09:19:44.350Z,90.60
2018-03-28T09:22:12.636Z,86.70
2018-03-28T09:24:40.973Z,76.50
2018-03-28T09:27:11.427Z,72.20
2018-03-28T09:29:39.742Z,74.50
2018-03-28T09:32:07.652Z,74.40
2018-03-28T09:34:35.263Z,71.80
2018-03-28T09:37:02.866Z,67.40
2018-03-28T09:39:30.437Z,65.60
2018-03-28T09:41:58.036Z,61.70
2018-03-28T09:44:26.180Z,58.90
2018-03-28T09:46:53.780Z,57.70
2018-03-28T09:49:21.348Z,60.90
2018-03-28T09:51:49.798Z,65.30
2018-03-28T09:54:17.380Z,63.90
2018-03-28T09:56:45.560Z,67.50
2018-03-28T09:59:29.489Z,68.80
2018-03-28T10:05:28.656Z,72.90
2018-03-28T10:07:57.472Z,78.80
2018-03-28T10:10:25.064Z,79.30
2018-03-28T10:12:53.487Z,80.40
2018-03-28T10:15:21.033Z,83.70
2018-03-28T10:17:48.580Z,86.20
2018-03-28T10:20:16.525Z,85.80
2018-03-28T10:22:44.065Z,83.50
2018-03-28T10:25:12.363Z,85.10
2018-03-28T10:27:40.355Z,85.10
2018-03-28T10:30:07.910Z,85.20
2018-03-28T10:32:35.548Z,85.20
2018-03-28T10:35:05.588Z,82.20
2018-03-28T10:37:33.137Z,83.20
2018-03-28T10:40:00.725Z,85.30
2018-03-28T10:42:28.295Z,85.40
2018-03-28T10:44:55.902Z,84.80
2018-03-28T10:47:23.666Z,84.50
2018-03-28T10:49:51.253Z,84.10
2018-03-28T10:52:18.788Z,81.20
2018-03-28T10:54:47.165Z,83.40
2018-03-28T10:57:16.624Z,85.80
2018-03-28T10:59:44.241Z,85.80
2018-03-28T11:02:11.792Z,84.70
2018-03-28T11:04:40.992Z,87.50
2018-03-28T11:07:09.393Z,90.20
2018-03-28T11:09:37.026Z,90.20
2018-03-28T11:12:05.380Z,86.80
2018-03-28T11:14:32.928Z,86.60
2018-03-28T11:17:00.525Z,89.30
2018-03-28T11:19:28.754Z,88.40
2018-03-28T11:21:56.638Z,88.20
2018-03-28T11:24:27.909Z,88.00
2018-03-28T11:26:56.284Z,85.50
2018-03-28T11:29:27.413Z,85.50
2018-03-28T11:31:55.751Z,87.30
2018-03-28T11:34:23.378Z,87.30
2018-03-28T11:36:51.237Z,85.90
2018-03-28T11:39:18.778Z,85.80
2018-03-28T11:41:47.905Z,83.70
2018-03-28T11:44:15.618Z,84.60
2018-03-28T11:46:43.155Z,87.40
2018-03-28T11:49:10.724Z,86.50
2018-03-28T11:51:39.028Z,90.20
2018-03-28T11:54:06.565Z,90.20
2018-03-28T11:56:34.152Z,87.90
2018-03-28T11:59:01.928Z,90.70
2018-03-28T12:01:29.473Z,91.90
2018-03-28T12:03:57.639Z,91.60
2018-03-28T12:06:25.178Z,90.70
2018-03-28T12:08:52.707Z,93.00
2018-03-28T12:11:21.026Z,94.80
2018-03-28T12:13:48.565Z,94.50
2018-03-28T12:16:16.708Z,92.80
2018-03-28T12:18:45.600Z,91.70
2018-03-28T12:21:25.703Z,91.60
2018-03-28T12:26:23.934Z,91.60
2018-03-28T12:28:51.467Z,92.10
2018-03-28T12:31:20.512Z,95.20
2018-03-28T12:33:48.562Z,95.20
2018-03-28T12:36:17.284Z,97.40
2018-03-28T12:38:44.835Z,97.20
2018-03-28T12:41:12.404Z,97.00
2018-03-28T12:43:40.024Z,96.80
2018-03-28T12:46:07.630Z,97.20
2018-03-28T12:48:38.603Z,96.60
2018-03-28T12:51:06.181Z,95.90
2018-03-28T12:53:33.714Z,96.30
2018-03-28T12:56:01.292Z,95.70
2018-03-28T12:58:28.833Z,93.50
2018-03-28T13:00:56.368Z,93.40
2018-03-28T13:03:24.645Z,93.20
2018-03-28T13:05:55.308Z,91.80
2018-03-28T13:08:22.928Z,91.60
2018-03-28T13:10:53.830Z,93.20
2018-03-28T13:13:22.363Z,92.90
2018-03-28T13:15:49.906Z,93.10
2018-03-28T13:18:18.280Z,91.40
2018-03-28T13:20:45.816Z,91.40
2018-03-28T13:23:25.163Z,90.00
2018-03-28T13:27:01.452Z,90.00
2018-03-28T13:29:29.363Z,90.20
2018-03-28T13:31:57.493Z,91.10
2018-03-28T13:34:25.445Z,90.50
2018-03-28T13:36:53.162Z,90.60
2018-03-28T13:39:20.740Z,91.80
2018-03-28T13:41:49.256Z,90.10
2018-03-28T13:44:23.239Z,90.80
2018-03-28T13:46:51.689Z,91.20
2018-03-28T13:49:19.468Z,91.10
2018-03-28T13:51:50.425Z,91.00
2018-03-28T13:56:52.833Z,92.50
2018-03-28T13:59:23.414Z,91.90
2018-03-28T14:01:53.028Z,91.60
2018-03-28T14:04:20.596Z,90.80
2018-03-28T14:06:48.250Z,90.70
2018-03-28T14:09:16.834Z,91.30
2018-03-28T14:11:44.491Z,91.90
2018-03-28T14:14:13.751Z,91.10
2018-03-28T14:16:41.363Z,91.10
2018-03-28T14:19:12.483Z,91.40
2018-03-28T14:21:40.170Z,91.50
2018-03-28T14:24:07.756Z,91.40
2018-03-28T14:26:38.280Z,92.30
2018-03-28T14:29:06.084Z,91.20
2018-03-28T14:34:12.344Z,90.90
2018-03-28T14:36:39.964Z,91.70
2018-03-28T14:39:07.518Z,89.90
2018-03-28T14:41:35.127Z,90.00
2018-03-28T14:44:02.720Z,90.30
2018-03-28T14:46:30.258Z,88.10
2018-03-28T14:48:58.054Z,90.10
2018-03-28T14:51:25.937Z,90.10
2018-03-28T14:53:53.480Z,90.50
2018-03-28T14:56:21.026Z,91.10
2018-03-28T14:58:48.612Z,90.70
2018-03-28T15:01:16.616Z,91.10
2018-03-28T15:03:44.160Z,90.80
2018-03-28T15:06:11.785Z,91.60
2018-03-28T15:08:39.343Z,91.30
2018-03-28T15:11:06.890Z,91.80
2018-03-28T15:13:35.317Z,92.20
2018-03-28T15:16:06.090Z,92.20
2018-03-28T15:18:33.781Z,91.20
2018-03-28T15:21:01.367Z,91.50
2018-03-28T15:23:28.904Z,91.70
2018-03-28T15:25:56.444Z,91.70
2018-03-28T15:28:24.039Z,92.10
2018-03-28T15:30:51.605Z,92.10
2018-03-28T15:33:19.192Z,92.30
2018-03-28T15:35:51.254Z,93.10
2018-03-28T15:38:19.211Z,93.60
2018-03-28T15:40:46.750Z,95.00
2018-03-28T15:43:16.452Z,95.80
2018-03-28T15:45:44.012Z,95.80
2018-03-28T15:48:11.563Z,96.90
2018-03-28T15:50:39.144Z,96.90
2018-03-28T15:53:06.708Z,97.00
2018-03-28T15:55:34.248Z,98.20
2018-03-28T15:58:02.364Z,98.40
2018-03-28T16:00:31.104Z,98.80
2018-03-28T16:02:59.125Z,99.60
2018-03-28T16:05:26.723Z,99.90
2018-03-28T16:07:56.305Z,99.90
2018-03-28T16:10:23.854Z,99.90
2018-03-28T16:12:51.445Z,99.90
2018-03-28T16:15:19.778Z,99.90
2018-03-28T16:17:47.351Z,99.90
2018-03-28T16:20:18.079Z,99.90
2018-03-28T16:22:45.621Z,99.90
2018-03-28T16:25:25.117Z,99.90
2018-03-28T16:30:22.087Z,99.90
2018-03-28T16:32:50.425Z,99.90
2018-03-28T16:35:18.899Z,99.90
2018-03-28T16:37:47.133Z,99.90
2018-03-28T16:40:16.443Z,99.90
2018-03-28T16:42:44.009Z,99.90
2018-03-28T16:45:11.554Z,99.90
2018-03-28T16:47:39.158Z,99.90
2018-03-28T16:50:06.698Z,99.90
2018-03-28T16:52:34.267Z,99.90
2018-03-28T16:55:01.852Z,99.90
2018-03-28T16:57:29.406Z,99.90
2018-03-28T16:59:56.954Z,99.90
2018-03-28T17:02:24.904Z,99.90
2018-03-28T17:04:52.515Z,99.90
2018-03-28T17:07:20.908Z,99.90
2018-03-28T17:09:48.461Z,99.90
2018-03-28T17:12:16.416Z,99.90
2018-03-28T17:14:43.997Z,99.90
2018-03-28T17:17:11.569Z,99.90
2018-03-28T17:19:39.125Z,99.90
2018-03-28T17:22:07.446Z,99.90
2018-03-28T17:24:35.552Z,99.90
2018-03-28T17:27:03.246Z,99.90
2018-03-28T17:29:30.892Z,99.90
2018-03-28T17:31:58.561Z,99.90
2018-03-28T17:34:26.170Z,99.90
2018-03-28T17:36:53.717Z,99.90
2018-03-28T17:39:22.822Z,99.90
2018-03-28T17:41:50.400Z,99.90
2018-03-28T17:44:17.945Z,99.90
2018-03-28T17:46:45.892Z,99.90
2018-03-28T17:49:25.385Z,99.90
2018-03-28T17:58:38.039Z,99.90
2018-03-28T18:01:06.708Z,99.90
2018-03-28T18:03:34.272Z,99.90
2018-03-28T18:06:01.972Z,99.90
2018-03-28T18:08:29.691Z,99.90
2018-03-28T18:10:57.372Z,99.90
2018-03-28T18:13:24.974Z,99.90
2018-03-28T18:15:53.285Z,99.90
2018-03-28T18:18:21.455Z,99.90
2018-03-28T18:20:49.033Z,99.90
2018-03-28T18:23:16.568Z,99.90
2018-03-28T18:25:46.184Z,99.90
2018-03-28T18:28:16.367Z,99.90
2018-03-28T18:30:43.914Z,99.90
2018-03-28T18:33:11.494Z,99.90
2018-03-28T18:35:40.074Z,99.90
2018-03-28T18:38:08.275Z,99.90
2018-03-28T18:40:36.626Z,99.90
2018-03-28T18:43:04.287Z,99.90
2018-03-28T18:45:31.935Z,99.90
2018-03-28T18:47:59.476Z,99.90
2018-03-28T18:50:27.887Z,99.90
2018-03-28T18:52:56.723Z,99.90
2018-03-28T18:55:24.279Z,99.90
2018-03-28T18:57:51.910Z,99.90
2018-03-28T19:00:19.607Z,99.90
2018-03-28T19:02:47.264Z,99.90
2018-03-28T19:05:16.128Z,99.90
2018-03-28T19:07:43.759Z,99.90
2018-03-28T19:10:11.324Z,99.90
2018-03-28T19:12:38.937Z,99.90
2018-03-28T19:15:06.570Z,99.90
2018-03-28T19:17:34.876Z,99.90
2018-03-28T19:20:03.220Z,99.90
2018-03-28T19:22:30.793Z,99.90
2018-03-28T19:24:58.341Z,99.90
2018-03-28T19:27:27.099Z,99.90
2018-03-28T19:29:54.655Z,99.90
2018-03-28T19:32:22.947Z,99.90
2018-03-28T19:34:50.700Z,99.90
2018-03-28T19:37:18.232Z,99.90
2018-03-28T19:39:45.767Z,99.90
2018-03-28T19:42:25.684Z,99.90
2018-03-28T19:48:45.655Z,99.90
2018-03-28T19:51:15.316Z,99.90
2018-03-28T19:53:43.507Z,99.90
2018-03-28T19:56:11.976Z,99.90
2018-03-28T19:58:40.321Z,99.90
2018-03-28T20:01:10.409Z,99.90
2018-03-28T20:03:38.810Z,99.90
2018-03-28T20:06:08.377Z,99.90
2018-03-28T20:08:35.960Z,99.90
2018-03-28T20:11:03.544Z,99.90
2018-03-28T20:13:31.117Z,99.90
2018-03-28T20:15:59.432Z,99.90
2018-03-28T20:18:27.327Z,99.90
2018-03-28T20:20:54.852Z,99.90
2018-03-28T20:23:22.452Z,99.90
2018-03-28T20:25:50.086Z,99.90
2018-03-28T20:28:17.682Z,99.90
2018-03-28T20:30:45.220Z,99.90
2018-03-28T20:33:14.510Z,99.90
2018-03-28T20:35:42.064Z,99.90
2018-03-28T20:38:09.647Z,99.90
2018-03-28T20:40:37.780Z,99.90
2018-03-28T20:43:06.827Z,99.90
2018-03-28T20:45:34.368Z,99.90
2018-03-28T20:48:02.033Z,99.90
2018-03-28T20:50:29.572Z,99.90
2018-03-28T20:52:57.100Z,99.90
2018-03-28T20:55:24.655Z,99.90
2018-03-28T20:57:52.293Z,99.90
2018-03-28T21:00:19.848Z,99.90
2018-03-28T21:02:47.455Z,99.90
2018-03-28T21:05:16.624Z,99.90
2018-03-28T21:07:44.232Z,99.90
2018-03-28T21:10:12.120Z,99.90
2018-03-28T21:12:39.660Z,99.90
2018-03-28T21:15:07.220Z,99.90
2018-03-28T21:17:34.890Z,99.90
2018-03-28T21:20:02.468Z,99.90
2018-03-28T21:22:30.122Z,99.90
2018-03-28T21:24:58.488Z,99.90
2018-03-28T21:27:26.102Z,99.90
2018-03-28T21:29:53.751Z,99.90
2018-03-28T21:32:21.348Z,99.90
2018-03-28T21:34:48.889Z,99.90
2018-03-28T21:37:16.430Z,99.90
2018-03-28T21:39:43.983Z,99.90
2018-03-28T21:42:11.527Z,99.90
2018-03-28T21:44:39.565Z,99.90
2018-03-28T21:47:07.716Z,99.90
2018-03-28T21:49:35.256Z,99.90
2018-03-28T21:52:02.788Z,99.90
2018-03-28T21:54:30.352Z,99.90
2018-03-28T21:56:57.948Z,99.90
2018-03-28T21:59:25.553Z,99.90
2018-03-28T22:01:53.151Z,99.90
2018-03-28T22:04:20.685Z,99.90
2018-03-28T22:06:48.249Z,99.90
2018-03-28T22:09:16.676Z,99.90
2018-03-28T22:11:44.210Z,99.90
2018-03-28T22:14:11.740Z,99.90
2018-03-28T22:16:39.300Z,99.90
2018-03-28T22:19:06.835Z,99.90
2018-03-28T22:21:34.372Z,99.90
2018-03-28T22:24:01.930Z,99.90
2018-03-28T22:26:29.500Z,99.90
2018-03-28T22:28:57.806Z,99.90
2018-03-28T22:31:25.851Z,99.90
2018-03-28T22:33:53.453Z,99.90
2018-03-28T22:36:20.983Z,99.90
2018-03-28T22:38:48.555Z,99.90
2018-03-28T22:41:16.469Z,99.90
2018-03-28T22:43:44.003Z,99.90
2018-03-28T22:46:12.272Z,99.90
2018-03-28T22:48:39.872Z,99.90
2018-03-28T22:51:07.407Z,99.90
2018-03-28T22:53:35.563Z,99.90
2018-03-28T22:56:03.090Z,99.90
2018-03-28T22:58:30.620Z,99.90
2018-03-28T23:00:58.183Z,99.90
2018-03-28T23:03:25.744Z,99.90
2018-03-28T23:05:53.276Z,99.90
2018-03-28T23:08:20.895Z,99.90
2018-03-28T23:10:49.205Z,99.90
2018-03-28T23:13:16.736Z,99.90
2018-03-28T23:15:45.788Z,99.90
2018-03-28T23:18:23.564Z,99.90
2018-03-28T23:25:22.455Z,99.90
2018-03-28T23:27:49.987Z,99.90
2018-03-28T23:30:17.523Z,99.90
2018-03-28T23:32:45.709Z,99.90
2018-03-28T23:35:15.473Z,99.90
2018-03-28T23:37:43.007Z,99.90
2018-03-28T23:40:11.334Z,99.90
2018-03-28T23:42:38.936Z,99.90
2018-03-28T23:45:06.564Z,99.90
2018-03-28T23:47:34.128Z,99.90
2018-03-28T23:50:01.673Z,99.90
2018-03-28T23:52:29.248Z,99.90
2018-03-28T23:54:57.143Z,99.90
2018-03-28T23:57:24.692Z,99.90
2018-03-28T23:59:52.223Z,99.90
